createdAt,value
2018-05-31T00:00:52.379Z,79.18
2018-05-31T00:03:19.817Z,79.54
2018-05-31T00:05:47.227Z,79.42
2018-05-31T00:08:14.656Z,79.70
2018-05-31T00:10:42.090Z,79.98
2018-05-31T00:13:09.499Z,79.75
2018-05-31T00:15:36.943Z,80.39
2018-05-31T00:18:04.399Z,80.76
2018-05-31T00:20:31.894Z,80.56
2018-05-31T00:22:59.400Z,80.64
2018-05-31T00:25:26.885Z,80.87
2018-05-31T00:27:54.411Z,81.07
2018-05-31T00:30:21.942Z,80.97
2018-05-31T00:32:49.360Z,81.16
2018-05-31T00:35:16.777Z,81.21
2018-05-31T00:37:44.232Z,80.92
2018-05-31T00:40:11.650Z,80.82
2018-05-31T00:42:39.086Z,80.95
2018-05-31T00:45:06.520Z,80.71
2018-05-31T00:47:34.007Z,80.82
2018-05-31T00:50:01.455Z,81.43
2018-05-31T00:52:28.885Z,81.32
2018-05-31T00:54:56.295Z,81.35
2018-05-31T00:57:23.756Z,82.00
2018-05-31T00:59:51.167Z,82.57
2018-05-31T01:02:18.576Z,82.07
2018-05-31T01:04:46.020Z,81.78
2018-05-31T01:07:13.427Z,81.68
2018-05-31T01:09:40.867Z,81.34
2018-05-31T01:12:08.326Z,81.02
2018-05-31T01:14:35.765Z,81.07
2018-05-31T01:17:03.175Z,81.10
2018-05-31T01:19:30.615Z,81.18
2018-05-31T01:21:58.030Z,81.95
2018-05-31T01:24:25.467Z,81.93
2018-05-31T01:26:52.893Z,81.60
2018-05-31T01:29:20.423Z,81.61
2018-05-31T01:31:47.859Z,81.56
2018-05-31T01:34:15.303Z,81.50
2018-05-31T01:36:42.708Z,82.39
2018-05-31T01:39:17.044Z,82.66
2018-05-31T01:41:44.522Z,82.69
2018-05-31T01:44:11.929Z,82.17
2018-05-31T01:46:39.356Z,81.90
2018-05-31T01:49:06.794Z,81.66
2018-05-31T01:51:34.200Z,81.98
2018-05-31T01:54:01.637Z,81.69
2018-05-31T01:56:29.052Z,81.81
2018-05-31T01:58:56.480Z,81.97
2018-05-31T02:01:23.896Z,81.86
2018-05-31T02:03:51.333Z,81.51
2018-05-31T02:06:18.744Z,81.35
2018-05-31T02:08:46.175Z,81.30
2018-05-31T02:11:13.612Z,81.36
2018-05-31T02:13:41.028Z,82.13
2018-05-31T02:16:08.465Z,82.03
2018-05-31T02:18:35.917Z,83.22
2018-05-31T02:21:03.452Z,82.84
2018-05-31T02:23:30.904Z,82.47
2018-05-31T02:25:58.457Z,82.59
2018-05-31T02:28:25.968Z,83.13
2018-05-31T02:30:53.584Z,83.51
2018-05-31T02:33:21.068Z,83.60
2018-05-31T02:35:48.504Z,83.18
2018-05-31T02:38:15.945Z,82.97
2018-05-31T02:40:43.384Z,82.67
2018-05-31T02:43:10.805Z,82.77
2018-05-31T02:45:38.240Z,82.20
2018-05-31T02:48:05.713Z,82.05
2018-05-31T02:50:33.153Z,82.02
2018-05-31T02:53:00.621Z,82.49
2018-05-31T02:55:28.146Z,82.59
2018-05-31T02:57:55.778Z,82.75
2018-05-31T03:00:23.245Z,82.47
2018-05-31T03:02:50.663Z,82.93
2018-05-31T03:05:18.083Z,82.32
2018-05-31T03:07:45.634Z,82.17
2018-05-31T03:10:13.063Z,82.95
2018-05-31T03:12:40.476Z,82.75
2018-05-31T03:15:07.935Z,82.75
2018-05-31T03:17:35.344Z,82.95
2018-05-31T03:20:02.758Z,83.68
2018-05-31T03:22:30.188Z,83.60
2018-05-31T03:24:57.628Z,83.03
2018-05-31T03:27:25.056Z,82.62
2018-05-31T03:29:52.469Z,82.51
2018-05-31T03:32:19.908Z,82.80
2018-05-31T03:34:47.321Z,82.82
2018-05-31T03:37:14.731Z,82.52
2018-05-31T03:39:42.164Z,82.31
2018-05-31T03:42:09.588Z,81.99
2018-05-31T03:44:37.019Z,81.83
2018-05-31T03:47:04.469Z,81.83
2018-05-31T03:49:31.932Z,81.78
2018-05-31T03:51:59.401Z,81.57
2018-05-31T03:54:26.841Z,81.30
2018-05-31T03:56:54.253Z,81.08
2018-05-31T03:59:21.669Z,80.81
2018-05-31T04:01:49.109Z,80.72
2018-05-31T04:04:16.520Z,80.34
2018-05-31T04:06:43.960Z,80.25
2018-05-31T04:09:11.372Z,79.88
2018-05-31T04:11:38.793Z,79.67
2018-05-31T04:14:06.228Z,79.34
2018-05-31T04:16:33.664Z,79.00
2018-05-31T04:19:01.107Z,78.79
2018-05-31T04:21:28.864Z,78.37
2018-05-31T04:23:56.281Z,78.13
2018-05-31T04:26:23.716Z,77.71
2018-05-31T04:28:51.132Z,77.23
2018-05-31T04:31:18.580Z,76.69
2018-05-31T04:33:46.007Z,75.85
2018-05-31T04:36:13.421Z,74.72
2018-05-31T04:38:40.856Z,73.13
2018-05-31T04:41:08.279Z,70.31
2018-05-31T04:43:35.724Z,69.78
2018-05-31T04:46:03.140Z,69.54
2018-05-31T04:48:30.556Z,68.46
2018-05-31T04:50:57.991Z,66.35
2018-05-31T04:53:25.404Z,62.38
2018-05-31T04:55:52.832Z,62.24
2018-05-31T04:58:20.249Z,61.99
2018-05-31T05:00:47.676Z,60.71
2018-05-31T05:03:15.112Z,60.30
2018-05-31T05:05:42.528Z,60.01
2018-05-31T05:08:09.977Z,58.39
2018-05-31T05:10:37.416Z,57.86
2018-05-31T05:13:04.832Z,56.45
2018-05-31T05:15:32.270Z,55.66
2018-05-31T05:17:59.683Z,50.76
2018-05-31T05:20:27.124Z,53.58
2018-05-31T05:22:54.536Z,52.36
2018-05-31T05:25:21.954Z,51.86
2018-05-31T05:27:49.384Z,50.66
2018-05-31T05:30:16.806Z,49.80
2018-05-31T05:32:44.248Z,49.76
2018-05-31T05:35:11.909Z,48.81
2018-05-31T05:37:39.356Z,46.54
2018-05-31T05:40:06.769Z,47.12
2018-05-31T05:42:34.183Z,46.34
2018-05-31T05:45:01.612Z,43.89
2018-05-31T05:47:29.025Z,45.46
2018-05-31T05:49:56.431Z,43.86
2018-05-31T05:52:23.960Z,44.14
2018-05-31T05:54:51.377Z,44.00
2018-05-31T05:57:18.801Z,43.94
2018-05-31T05:59:46.235Z,43.73
2018-05-31T06:02:13.646Z,43.05
2018-05-31T06:04:41.085Z,43.17
2018-05-31T06:07:08.500Z,42.82
2018-05-31T06:09:35.928Z,42.64
2018-05-31T06:12:03.371Z,41.92
2018-05-31T06:14:30.812Z,42.96
2018-05-31T06:16:58.249Z,42.99
2018-05-31T06:19:25.656Z,42.07
2018-05-31T06:21:53.096Z,42.48
2018-05-31T06:24:20.538Z,42.52
2018-05-31T06:26:47.956Z,41.20
2018-05-31T06:29:15.397Z,39.76
2018-05-31T06:31:42.825Z,41.33
2018-05-31T06:34:10.248Z,40.77
2018-05-31T06:36:37.693Z,40.14
2018-05-31T06:39:05.716Z,40.75
2018-05-31T06:41:39.135Z,40.45
2018-05-31T06:44:06.584Z,39.94
2018-05-31T06:46:33.988Z,39.50
2018-05-31T06:49:01.421Z,39.03
2018-05-31T06:51:28.836Z,39.45
2018-05-31T06:53:56.272Z,37.81
2018-05-31T06:56:23.712Z,39.47
2018-05-31T06:58:51.153Z,39.74
2018-05-31T07:01:18.601Z,38.19
2018-05-31T07:03:46.032Z,38.84
2018-05-31T07:06:13.448Z,38.46
2018-05-31T07:08:40.880Z,38.41
2018-05-31T07:11:08.292Z,38.36
2018-05-31T07:13:35.727Z,39.04
2018-05-31T07:16:03.146Z,38.43
2018-05-31T07:18:30.588Z,38.68
2018-05-31T07:21:00.956Z,37.62
2018-05-31T07:23:28.776Z,38.97
2018-05-31T07:25:56.191Z,38.26
2018-05-31T07:28:23.627Z,37.65
2018-05-31T07:30:55.112Z,36.31
2018-05-31T07:33:22.827Z,36.32
2018-05-31T07:35:50.719Z,36.66
2018-05-31T07:38:18.577Z,36.43
2018-05-31T07:40:46.125Z,36.34
2018-05-31T07:43:13.609Z,35.61
2018-05-31T07:45:41.032Z,36.56
2018-05-31T07:48:08.544Z,36.93
2018-05-31T07:50:36.231Z,36.68
2018-05-31T07:53:04.012Z,35.99
2018-05-31T07:55:31.867Z,36.54
2018-05-31T07:57:59.395Z,35.79
2018-05-31T08:00:26.811Z,36.86
2018-05-31T08:02:54.251Z,37.45
2018-05-31T08:05:21.656Z,37.29
2018-05-31T08:07:49.843Z,37.26
2018-05-31T08:10:17.373Z,35.99
2018-05-31T08:12:44.830Z,35.25
2018-05-31T08:15:16.193Z,36.21
2018-05-31T08:17:43.738Z,37.18
2018-05-31T08:20:11.179Z,36.55
2018-05-31T08:22:38.660Z,36.89
2018-05-31T08:25:07.034Z,36.61
2018-05-31T08:27:34.635Z,36.98
2018-05-31T08:30:02.188Z,36.65
2018-05-31T08:32:29.717Z,38.45
2018-05-31T08:34:57.128Z,38.43
2018-05-31T08:37:24.812Z,37.98
2018-05-31T08:39:52.255Z,39.89
2018-05-31T08:42:20.721Z,38.48
2018-05-31T08:44:48.156Z,38.50
2018-05-31T08:47:15.568Z,39.27
2018-05-31T08:49:43.000Z,39.53
2018-05-31T08:52:10.432Z,39.38
2018-05-31T08:54:37.905Z,38.97
2018-05-31T08:57:05.372Z,39.29
2018-05-31T08:59:32.795Z,39.33
2018-05-31T09:02:00.216Z,39.87
2018-05-31T09:04:27.628Z,39.10
2018-05-31T09:06:55.063Z,39.83
2018-05-31T09:09:22.531Z,37.99
2018-05-31T09:11:49.895Z,38.98
2018-05-31T09:14:17.311Z,38.10
2018-05-31T09:16:44.717Z,36.55
2018-05-31T09:19:12.144Z,36.35
2018-05-31T09:21:39.560Z,36.85
2018-05-31T09:24:06.997Z,37.60
2018-05-31T09:26:34.439Z,38.44
2018-05-31T09:29:01.930Z,37.24
2018-05-31T09:31:29.405Z,37.09
2018-05-31T09:33:56.939Z,37.09
2018-05-31T09:36:24.425Z,36.30
2018-05-31T09:38:51.821Z,34.75
2018-05-31T09:41:19.229Z,35.79
2018-05-31T09:43:46.663Z,36.71
2018-05-31T09:46:14.072Z,36.10
2018-05-31T09:48:41.487Z,36.40
2018-05-31T09:51:08.893Z,35.66
2018-05-31T09:53:36.448Z,34.92
2018-05-31T09:56:03.857Z,34.45
2018-05-31T09:58:31.293Z,33.38
2018-05-31T10:00:58.738Z,31.68
2018-05-31T10:03:26.192Z,32.07
2018-05-31T10:05:53.640Z,32.58
2018-05-31T10:08:21.058Z,33.42
2018-05-31T10:10:48.462Z,34.35
2018-05-31T10:13:15.907Z,35.13
2018-05-31T10:15:43.321Z,36.41
2018-05-31T10:18:10.753Z,37.58
2018-05-31T10:20:38.152Z,37.51
2018-05-31T10:23:05.584Z,38.38
2018-05-31T10:25:33.118Z,38.69
2018-05-31T10:28:00.528Z,38.93
2018-05-31T10:30:27.956Z,39.36
2018-05-31T10:32:55.423Z,39.76
2018-05-31T10:35:22.875Z,39.48
2018-05-31T10:37:50.664Z,39.33
2018-05-31T10:40:18.080Z,39.81
2018-05-31T10:42:45.476Z,39.89
2018-05-31T10:45:12.901Z,40.02
2018-05-31T10:47:40.315Z,40.56
2018-05-31T10:50:07.734Z,40.71
2018-05-31T10:52:35.172Z,40.09
2018-05-31T10:55:02.598Z,40.12
2018-05-31T10:57:30.120Z,40.49
2018-05-31T10:59:57.715Z,40.69
2018-05-31T11:02:25.162Z,40.91
2018-05-31T11:04:52.844Z,40.11
2018-05-31T11:07:20.592Z,40.57
2018-05-31T11:09:48.002Z,41.23
2018-05-31T11:12:15.566Z,41.26
2018-05-31T11:14:43.346Z,42.21
2018-05-31T11:17:10.836Z,42.42
2018-05-31T11:19:39.320Z,42.22
2018-05-31T11:22:06.755Z,42.00
2018-05-31T11:24:34.320Z,41.41
2018-05-31T11:27:01.972Z,40.97
2018-05-31T11:29:29.524Z,41.12
2018-05-31T11:31:57.076Z,40.94
2018-05-31T11:34:25.419Z,41.00
2018-05-31T11:36:53.076Z,41.25
2018-05-31T11:39:20.986Z,41.78
2018-05-31T11:41:48.739Z,41.96
2018-05-31T11:44:16.248Z,41.44
2018-05-31T11:46:43.761Z,41.82
2018-05-31T11:49:12.066Z,41.63
2018-05-31T11:51:39.618Z,41.51
2018-05-31T11:54:07.948Z,41.31
2018-05-31T11:56:35.524Z,41.27
2018-05-31T11:59:03.073Z,43.79
2018-05-31T12:01:30.588Z,44.59
2018-05-31T12:03:58.028Z,45.82
2018-05-31T12:06:25.492Z,45.82
2018-05-31T12:08:52.920Z,46.38
2018-05-31T12:11:20.434Z,47.32
2018-05-31T12:13:47.866Z,48.25
2018-05-31T12:16:15.419Z,48.47
2018-05-31T12:18:43.185Z,49.97
2018-05-31T12:21:10.639Z,51.20
2018-05-31T12:23:38.191Z,49.99
2018-05-31T12:26:05.764Z,50.39
2018-05-31T12:28:33.219Z,51.30
2018-05-31T12:31:00.816Z,52.94
2018-05-31T12:33:30.547Z,52.02
2018-05-31T12:35:58.232Z,52.64
2018-05-31T12:38:26.005Z,52.08
2018-05-31T12:40:53.805Z,51.63
2018-05-31T12:43:21.320Z,52.74
2018-05-31T12:45:48.736Z,53.48
2018-05-31T12:48:16.162Z,53.37
2018-05-31T12:50:43.566Z,54.03
2018-05-31T12:53:10.976Z,54.51
2018-05-31T12:55:38.403Z,53.73
2018-05-31T12:58:05.965Z,52.00
2018-05-31T13:00:33.442Z,53.18
2018-05-31T13:03:00.854Z,52.44
2018-05-31T13:05:28.503Z,51.02
2018-05-31T13:07:55.912Z,51.53
2018-05-31T13:10:23.316Z,50.97
2018-05-31T13:12:50.743Z,50.42
2018-05-31T13:15:18.169Z,50.57
2018-05-31T13:17:45.576Z,50.48
2018-05-31T13:20:12.988Z,49.93
2018-05-31T13:22:40.411Z,49.30
2018-05-31T13:25:07.816Z,48.31
2018-05-31T13:27:35.240Z,45.66
2018-05-31T13:30:02.649Z,46.08
2018-05-31T13:32:30.077Z,45.82
2018-05-31T13:34:57.492Z,44.42
2018-05-31T13:37:24.891Z,43.89
2018-05-31T13:39:52.651Z,42.35
2018-05-31T13:42:20.099Z,40.38
2018-05-31T13:44:47.509Z,40.72
2018-05-31T13:47:14.927Z,39.35
2018-05-31T13:49:42.337Z,39.97
2018-05-31T13:52:09.767Z,38.45
2018-05-31T13:54:37.188Z,38.26
2018-05-31T13:57:04.641Z,38.98
2018-05-31T13:59:32.068Z,38.32
2018-05-31T14:01:59.700Z,33.44
2018-05-31T14:04:27.201Z,34.17
2018-05-31T14:06:54.690Z,33.80
2018-05-31T14:09:22.200Z,34.41
2018-05-31T14:11:49.650Z,33.36
2018-05-31T14:14:18.009Z,35.56
2018-05-31T14:16:45.413Z,35.99
2018-05-31T14:19:12.992Z,36.17
2018-05-31T14:21:40.401Z,35.34
2018-05-31T14:24:07.821Z,35.56
2018-05-31T14:26:35.408Z,35.48
2018-05-31T14:29:02.809Z,36.43
2018-05-31T14:31:30.212Z,36.68
2018-05-31T14:33:57.635Z,36.48
2018-05-31T14:36:25.036Z,36.95
2018-05-31T14:38:52.496Z,36.46
2018-05-31T14:41:19.920Z,36.55
2018-05-31T14:43:47.353Z,36.77
2018-05-31T14:46:14.760Z,36.99
2018-05-31T14:48:42.155Z,37.14
2018-05-31T14:51:09.568Z,37.57
2018-05-31T14:53:37.107Z,37.71
2018-05-31T14:56:04.776Z,36.90
2018-05-31T14:58:32.184Z,37.27
2018-05-31T15:00:59.584Z,37.58
2018-05-31T15:03:27.068Z,37.05
2018-05-31T15:05:54.683Z,37.36
2018-05-31T15:08:22.108Z,37.19
2018-05-31T15:10:49.586Z,37.49
2018-05-31T15:13:17.022Z,38.00
2018-05-31T15:15:44.430Z,38.42
2018-05-31T15:18:11.853Z,38.67
2018-05-31T15:20:39.258Z,38.75
2018-05-31T15:23:06.676Z,38.53
2018-05-31T15:25:34.079Z,38.25
2018-05-31T15:28:01.487Z,38.67
2018-05-31T15:30:28.923Z,38.61
2018-05-31T15:32:56.358Z,38.93
2018-05-31T15:35:23.815Z,39.13
2018-05-31T15:37:51.222Z,39.70
2018-05-31T15:40:18.640Z,40.00
2018-05-31T15:42:46.051Z,39.95
2018-05-31T15:45:13.468Z,40.09
2018-05-31T15:47:40.901Z,40.40
2018-05-31T15:50:08.320Z,40.80
2018-05-31T15:52:35.779Z,43.71
2018-05-31T15:55:03.239Z,43.56
2018-05-31T15:57:30.667Z,43.97
2018-05-31T15:59:58.099Z,44.65
2018-05-31T16:02:25.528Z,45.17
2018-05-31T16:04:52.945Z,46.08
2018-05-31T16:07:20.353Z,45.86
2018-05-31T16:09:47.782Z,45.80
2018-05-31T16:12:15.188Z,45.17
2018-05-31T16:14:42.615Z,45.64
2018-05-31T16:17:10.036Z,46.03
2018-05-31T16:19:37.465Z,46.45
2018-05-31T16:22:04.941Z,46.64
2018-05-31T16:24:32.567Z,47.61
2018-05-31T16:27:00.021Z,48.28
2018-05-31T16:29:27.527Z,48.73
2018-05-31T16:31:55.001Z,50.47
2018-05-31T16:34:22.460Z,51.21
2018-05-31T16:36:49.956Z,51.44
2018-05-31T16:39:17.367Z,52.47
2018-05-31T16:41:44.792Z,52.12
2018-05-31T16:44:12.233Z,52.47
2018-05-31T16:46:39.669Z,52.99
2018-05-31T16:49:07.099Z,53.08
2018-05-31T16:51:34.552Z,53.55
2018-05-31T16:54:01.993Z,54.33
2018-05-31T16:56:29.577Z,54.61
2018-05-31T16:58:57.092Z,55.15
2018-05-31T17:01:24.553Z,56.25
2018-05-31T17:03:52.016Z,55.72
2018-05-31T17:06:19.452Z,55.82
2018-05-31T17:08:47.191Z,57.12
2018-05-31T17:11:14.612Z,58.73
2018-05-31T17:13:42.039Z,59.04
2018-05-31T17:16:09.599Z,57.22
2018-05-31T17:18:37.000Z,58.10
2018-05-31T17:21:04.420Z,58.02
2018-05-31T17:23:31.831Z,58.33
2018-05-31T17:25:59.244Z,59.65
2018-05-31T17:28:26.682Z,59.64
2018-05-31T17:30:54.195Z,59.38
2018-05-31T17:33:21.663Z,59.77
2018-05-31T17:35:49.092Z,61.25
2018-05-31T17:38:16.501Z,62.03
2018-05-31T17:40:43.915Z,61.39
2018-05-31T17:43:11.412Z,62.22
2018-05-31T17:45:38.933Z,62.47
2018-05-31T17:48:06.403Z,62.50
2018-05-31T17:50:33.827Z,62.11
2018-05-31T17:53:01.263Z,62.50
2018-05-31T17:55:28.766Z,61.72
2018-05-31T17:57:56.414Z,61.42
2018-05-31T18:00:23.978Z,61.15
2018-05-31T18:02:51.552Z,60.81
2018-05-31T18:05:18.972Z,61.80
2018-05-31T18:07:46.409Z,61.83
2018-05-31T18:10:13.873Z,61.22
2018-05-31T18:12:41.286Z,60.54
2018-05-31T18:15:08.704Z,60.26
2018-05-31T18:17:36.113Z,60.32
2018-05-31T18:20:03.523Z,59.68
2018-05-31T18:22:30.951Z,59.72
2018-05-31T18:24:58.404Z,59.53
2018-05-31T18:27:25.854Z,59.63
2018-05-31T18:29:53.671Z,59.62
2018-05-31T18:32:21.093Z,59.78
2018-05-31T18:34:48.566Z,59.25
2018-05-31T18:37:16.640Z,59.49
2018-05-31T18:39:44.131Z,59.64
2018-05-31T18:42:11.535Z,59.25
2018-05-31T18:44:38.961Z,59.23
2018-05-31T18:47:06.436Z,59.58
2018-05-31T18:49:33.893Z,59.42
2018-05-31T18:52:01.369Z,59.64
2018-05-31T18:54:28.839Z,58.91
2018-05-31T18:56:56.658Z,59.10
2018-05-31T18:59:24.122Z,59.55
2018-05-31T19:01:51.559Z,59.63
2018-05-31T19:04:18.966Z,59.65
2018-05-31T19:06:46.393Z,59.60
2018-05-31T19:09:19.460Z,59.46
2018-05-31T19:11:48.223Z,59.96
2018-05-31T19:14:15.732Z,59.96
2018-05-31T19:16:43.144Z,59.69
2018-05-31T19:22:15.644Z,58.91
2018-05-31T19:24:48.549Z,58.88
2018-05-31T19:27:16.091Z,58.70
2018-05-31T19:29:43.492Z,58.65
2018-05-31T19:32:10.930Z,58.93
2018-05-31T19:34:38.332Z,59.50
2018-05-31T19:37:11.281Z,59.03
2018-05-31T19:39:38.727Z,59.08
2018-05-31T19:42:06.134Z,59.04
2018-05-31T19:44:38.450Z,59.15
2018-05-31T19:47:05.915Z,59.85
2018-05-31T19:49:33.475Z,60.36
2018-05-31T19:52:06.628Z,60.09
2018-05-31T19:54:34.115Z,60.17
2018-05-31T19:57:01.552Z,60.65
2018-05-31T19:59:34.552Z,60.90
2018-05-31T20:02:07.722Z,61.62
2018-05-31T20:04:35.232Z,61.76
2018-05-31T20:07:02.717Z,61.80
2018-05-31T20:09:30.282Z,61.78
2018-05-31T20:11:57.734Z,61.91
2018-05-31T20:14:25.303Z,62.62
2018-05-31T20:16:52.745Z,62.86
2018-05-31T20:19:20.164Z,62.96
2018-05-31T20:21:47.628Z,63.01
2018-05-31T20:24:15.118Z,63.13
2018-05-31T20:26:42.519Z,64.04
2018-05-31T20:29:09.949Z,63.36
2018-05-31T20:31:37.428Z,64.48
2018-05-31T20:34:04.907Z,65.47
2018-05-31T20:36:32.351Z,64.82
2018-05-31T20:38:59.817Z,64.52
2018-05-31T20:41:27.474Z,65.76
2018-05-31T20:43:54.988Z,65.61
2018-05-31T20:46:22.509Z,65.65
2018-05-31T20:48:50.121Z,66.04
2018-05-31T20:51:17.556Z,66.21
2018-05-31T20:53:44.968Z,66.18
2018-05-31T20:56:12.393Z,67.10
2018-05-31T20:58:40.041Z,66.78
2018-05-31T21:01:08.116Z,67.04
2018-05-31T21:03:35.556Z,67.95
2018-05-31T21:06:02.988Z,68.17
2018-05-31T21:08:30.460Z,67.32
2018-05-31T21:10:57.876Z,66.90
2018-05-31T21:13:25.317Z,66.89
2018-05-31T21:15:52.731Z,67.38
2018-05-31T21:18:20.140Z,67.08
2018-05-31T21:20:47.552Z,67.10
2018-05-31T21:23:15.067Z,67.16
2018-05-31T21:25:42.476Z,67.12
2018-05-31T21:28:09.910Z,67.01
2018-05-31T21:30:37.330Z,67.17
2018-05-31T21:33:04.936Z,67.29
2018-05-31T21:35:32.591Z,67.54
2018-05-31T21:38:00.079Z,68.17
2018-05-31T21:40:27.562Z,68.92
2018-05-31T21:42:55.101Z,69.08
2018-05-31T21:45:22.556Z,68.83
2018-05-31T21:47:49.964Z,68.35
2018-05-31T21:50:17.832Z,68.52
2018-05-31T21:52:45.304Z,68.21
2018-05-31T21:55:12.664Z,68.37
2018-05-31T21:57:40.085Z,68.63
2018-05-31T22:00:07.520Z,68.32
2018-05-31T22:02:34.939Z,68.69
2018-05-31T22:05:02.358Z,68.42
2018-05-31T22:07:29.777Z,68.92
2018-05-31T22:09:57.438Z,68.96
2018-05-31T22:12:24.844Z,68.99
2018-05-31T22:14:52.364Z,68.95
2018-05-31T22:17:19.791Z,70.04
2018-05-31T22:19:47.197Z,69.98
2018-05-31T22:22:14.622Z,69.97
2018-05-31T22:24:42.041Z,69.60
2018-05-31T22:27:09.439Z,70.42
2018-05-31T22:29:36.849Z,70.31
2018-05-31T22:32:04.528Z,70.35
2018-05-31T22:34:31.953Z,70.85
2018-05-31T22:36:59.395Z,71.16
2018-05-31T22:39:26.912Z,71.22
2018-05-31T22:41:55.285Z,70.77
2018-05-31T22:44:22.889Z,71.08
2018-05-31T22:46:50.294Z,71.28
2018-05-31T22:49:17.708Z,71.34
2018-05-31T22:51:45.128Z,71.57
2018-05-31T22:54:12.535Z,72.49
2018-05-31T22:56:39.951Z,71.31
2018-05-31T22:59:07.381Z,71.40
2018-05-31T23:01:34.784Z,71.31
2018-05-31T23:04:02.188Z,70.86
2018-05-31T23:06:29.603Z,70.99
2018-05-31T23:08:57.029Z,70.90
2018-05-31T23:11:24.441Z,71.08
2018-05-31T23:13:51.844Z,71.05
2018-05-31T23:16:19.296Z,70.84
2018-05-31T23:18:46.700Z,70.50
2018-05-31T23:21:14.126Z,70.27
2018-05-31T23:23:41.529Z,70.16
2018-05-31T23:26:08.937Z,70.30
2018-05-31T23:28:36.357Z,71.42
2018-05-31T23:31:03.776Z,71.82
2018-05-31T23:33:31.180Z,71.72
2018-05-31T23:35:58.600Z,71.10
2018-05-31T23:38:26.003Z,71.53
2018-05-31T23:40:53.409Z,72.26
2018-05-31T23:43:20.825Z,72.47
2018-05-31T23:45:48.224Z,72.11
2018-05-31T23:48:15.656Z,72.65
2018-05-31T23:50:43.059Z,72.71
2018-05-31T23:53:10.473Z,73.16
2018-05-31T23:55:37.895Z,74.01
2018-05-31T23:58:05.342Z,74.78
